This is the latest recevied weather packets stored in our database for station/object SP9INZ-13. If no packets are shown the sender has not sent any weather packets the latest 10 day(s).
| Time | Temp. | Humidity | Pressure | Rain* | Wind** | Luminosity | Snow |
|---|---|---|---|---|---|---|---|
| 1777683100 | 13.89° C | 59% | 1029.7 hPa | - | - | - | - |
| 1777682141 | 13.33° C | 61% | 1030 hPa | - | - | - | - |
| 1777681184 | 13.89° C | 59% | 1029.6 hPa | - | - | - | - |
| 1777680226 | 15° C | 56% | 1029.6 hPa | - | - | - | - |
| 1777679267 | 13.89° C | 58% | 1030 hPa | - | - | - | - |
| 1777678312 | 15° C | 56% | 1029.5 hPa | - | - | - | - |
| 1777677351 | 15.56° C | 54% | 1029.8 hPa | - | - | - | - |
| 1777676395 | 13.33° C | 59% | 1030.2 hPa | - | - | - | - |
| 1777675435 | 13.33° C | 59% | 1030.4 hPa | - | - | - | - |
| 1777674479 | 14.44° C | 56% | 1030.5 hPa | - | - | - | - |
| 1777673519 | 15° C | 55% | 1030.2 hPa | - | - | - | - |
| 1777672561 | 14.44° C | 57% | 1030.5 hPa | - | - | - | - |
| 1777671604 | 15° C | 55% | 1030.4 hPa | - | - | - | - |
| 1777670645 | 15.56° C | 54% | 1030.2 hPa | - | - | - | - |
| 1777669687 | 16.11° C | 52% | 1030.3 hPa | - | - | - | - |
| 1777668729 | 17.22° C | 48% | 1030.1 hPa | - | - | - | - |
| 1777667772 | 17.22° C | 48% | 1030.2 hPa | - | - | - | - |
| 1777666813 | 17.22° C | 48% | 1030.2 hPa | - | - | - | - |
| 1777665855 | 17.22° C | 47% | 1030.2 hPa | - | - | - | - |
| 1777664897 | 17.78° C | 46% | 1030.1 hPa | - | - | - | - |
| 1777663939 | 18.33° C | 46% | 1030 hPa | - | - | - | - |
| 1777662981 | 18.33° C | 45% | 1030 hPa | - | - | - | - |
| 1777662023 | 18.89° C | 44% | 1029.7 hPa | - | - | - | - |
| 1777661066 | 18.89° C | 43% | 1029.6 hPa | - | - | - | - |
| 1777660108 | 18.89° C | 44% | 1029.6 hPa | - | - | - | - |
* Rain since midnight (hover to see other rain measurements)
** Current wind speed in m/s (hover to see current wind gust speed)